Time;durP1;ratioP1;P1;durP2;ratioP2;P2;SDS_P1;SDS_P2;PMS_P1;PMS_P2;Temp;Humidity;BMP_temperature;BMP_pressure;BME280_temperature;BME280_humidity;BME280_pressure;Samples;Min_cycle;Max_cycle;Signal;HPM_P1;HPM_P2
2022/07/20 00:01:12;;;;;;;5.80;2.70;;;;;;;22.66;37.01;100904.70;107957;1276;73430;-86
2022/07/20 00:03:41;;;;;;;7.50;2.60;;;;;;;22.62;37.02;100900.05;108093;1276;61452;-87
2022/07/20 00:06:12;;;;;;;7.70;2.30;;;;;;;22.62;37.01;100902.80;108109;1276;60964;-86
2022/07/20 00:11:26;;;;;;;6.10;2.20;;;;;;;22.58;36.97;100902.38;107926;1276;72933;-86
2022/07/20 00:13:59;;;;;;;4.60;2.10;;;;;;;22.57;36.96;100900.36;107993;1276;74897;-87
2022/07/20 00:16:28;;;;;;;6.60;2.60;;;;;;;22.57;37.11;100901.45;107926;1276;61079;-86
2022/07/20 00:18:56;;;;;;;6.10;2.40;;;;;;;22.55;37.33;100904.55;108168;1276;60215;-86
2022/07/20 00:21:24;;;;;;;4.60;2.00;;;;;;;22.55;37.31;100902.66;108182;1276;75264;-86
2022/07/20 00:23:52;;;;;;;6.00;2.30;;;;;;;22.52;37.32;100901.65;107978;1277;71700;-86
2022/07/20 00:26:19;;;;;;;7.30;2.10;;;;;;;22.50;37.31;100897.50;108189;1276;74094;-86
2022/07/20 00:28:50;;;;;;;7.10;2.10;;;;;;;22.48;37.40;100894.95;108021;1277;60175;-87
2022/07/20 00:31:20;;;;;;;7.70;3.00;;;;;;;22.46;37.43;100897.88;108118;1277;59744;-86
2022/07/20 00:33:48;;;;;;;7.20;2.70;;;;;;;22.42;37.45;100894.31;108088;1276;75801;-86
2022/07/20 00:36:17;;;;;;;7.00;2.30;;;;;;;22.38;37.51;100894.16;108092;1276;72743;-87
2022/07/20 00:38:45;;;;;;;8.20;2.20;;;;;;;22.34;37.49;100892.59;108131;1276;72958;-86
2022/07/20 00:41:14;;;;;;;6.90;2.30;;;;;;;22.30;37.57;100889.45;108148;1276;62454;-86
2022/07/20 00:44:01;;;;;;;6.60;2.10;;;;;;;22.26;37.62;100887.88;108151;1277;60625;-86
2022/07/20 00:46:31;;;;;;;7.20;2.30;;;;;;;22.20;37.82;100885.50;108070;1276;76460;-86
2022/07/20 00:48:58;;;;;;;5.20;2.30;;;;;;;22.15;37.85;100886.28;108161;1276;71243;-86
2022/07/20 00:51:26;;;;;;;9.00;2.50;;;;;;;22.12;37.92;100887.27;107982;1276;72923;-86
2022/07/20 00:53:54;;;;;;;5.90;2.40;;;;;;;22.08;38.17;100887.36;108099;1276;60817;-86
2022/07/20 00:56:22;;;;;;;7.80;2.30;;;;;;;22.03;38.19;100886.69;108071;1277;61414;-86
2022/07/20 00:58:50;;;;;;;4.90;2.40;;;;;;;21.99;38.37;100889.48;107962;1276;77051;-86
2022/07/20 01:01:19;;;;;;;9.60;2.40;;;;;;;21.92;38.48;100889.77;107897;1277;71483;-86
2022/07/20 01:03:46;;;;;;;4.80;2.30;;;;;;;21.87;38.52;100888.77;107720;1276;72854;-86
2022/07/20 01:06:14;;;;;;;4.40;2.10;;;;;;;21.83;38.62;100889.95;108130;1276;60377;-86
2022/07/20 01:08:41;;;;;;;9.70;2.30;;;;;;;21.79;38.73;100885.57;107925;1277;62747;-86
2022/07/20 01:11:11;;;;;;;5.30;1.90;;;;;;;21.76;38.81;100882.69;108049;1276;75591;-85
2022/07/20 01:13:38;;;;;;;7.20;2.20;;;;;;;21.73;38.99;100882.15;107902;1276;72986;-85
2022/07/20 01:16:09;;;;;;;9.10;2.20;;;;;;;21.69;39.25;100882.08;107616;1276;74174;-85
2022/07/20 01:18:36;;;;;;;4.90;2.10;;;;;;;21.65;39.41;100882.34;107532;1276;490593;-84
2022/07/20 01:21:05;;;;;;;8.20;2.40;;;;;;;21.61;39.54;100880.60;107791;1276;60611;-84
2022/07/20 01:23:39;;;;;;;5.00;2.10;;;;;;;21.57;39.64;100879.48;108094;1276;75684;-84
2022/07/20 01:26:15;;;;;;;6.80;1.90;;;;;;;21.54;39.78;100872.79;107798;1276;71530;-84
2022/07/20 01:28:42;;;;;;;6.20;2.10;;;;;;;21.52;39.80;100872.80;107787;1276;74042;-84
2022/07/20 01:31:12;;;;;;;5.70;2.10;;;;;;;21.49;39.97;100869.23;107968;1276;60891;-85
2022/07/20 01:33:39;;;;;;;5.30;2.30;;;;;;;21.47;40.06;100867.66;107747;1277;61231;-84
2022/07/20 01:36:10;;;;;;;8.00;2.40;;;;;;;21.43;40.22;100867.55;107591;1277;75579;-84
2022/07/20 01:38:36;;;;;;;6.70;2.20;;;;;;;21.40;40.36;100869.44;107447;1276;73077;-84
2022/07/20 01:41:04;;;;;;;6.10;2.30;;;;;;;21.36;40.39;100864.21;107644;1277;74611;-85
2022/07/20 01:43:37;;;;;;;6.30;2.60;;;;;;;21.33;40.51;100865.13;107998;1276;60202;-85
2022/07/20 01:46:10;;;;;;;7.00;2.70;;;;;;;21.31;40.71;100861.05;107951;1276;60573;-85
2022/07/20 01:48:38;;;;;;;8.20;2.80;;;;;;;21.29;40.80;100860.14;107398;1277;75594;-85
2022/07/20 01:51:10;;;;;;;5.00;2.50;;;;;;;21.28;41.00;100857.98;107973;1276;72968;-85
2022/07/20 01:53:37;;;;;;;5.60;2.70;;;;;;;21.27;41.02;100858.34;107516;1279;73268;-85
2022/07/20 01:56:10;;;;;;;6.50;2.10;;;;;;;21.23;41.08;100857.52;107915;1276;60949;-85
2022/07/20 01:58:37;;;;;;;4.20;2.20;;;;;;;21.21;41.11;100855.04;107936;1276;60338;-85
2022/07/20 02:01:04;;;;;;;4.40;2.20;;;;;;;21.18;41.49;100854.55;107970;1276;76770;-85
2022/07/20 02:03:40;;;;;;;7.10;2.60;;;;;;;21.15;41.60;100855.36;107945;1276;71397;-85
2022/07/20 02:06:14;;;;;;;5.80;2.50;;;;;;;21.12;41.96;100852.08;107838;1276;75063;-86
2022/07/20 02:08:41;;;;;;;5.20;2.30;;;;;;;21.10;41.73;100851.71;107973;1276;61077;-86
2022/07/20 02:11:11;;;;;;;8.80;2.70;;;;;;;21.06;41.77;100849.48;108035;1276;60378;-85
2022/07/20 02:13:38;;;;;;;7.40;2.50;;;;;;;21.02;41.97;100849.02;107965;1276;76202;-85
2022/07/20 02:16:17;;;;;;;8.50;2.60;;;;;;;20.98;41.99;100852.57;107817;1276;71325;-85
2022/07/20 02:18:49;;;;;;;6.80;2.50;;;;;;;20.94;42.10;100853.87;107807;1276;71431;-85
2022/07/20 02:21:19;;;;;;;6.80;2.50;;;;;;;20.89;42.28;100852.45;107766;1276;60731;-85
2022/07/20 02:23:47;;;;;;;10.00;2.90;;;;;;;20.85;42.45;100854.58;107769;1276;60678;-85
2022/07/20 02:26:13;;;;;;;5.90;2.80;;;;;;;20.81;42.73;100849.86;107788;1276;74799;-85
2022/07/20 02:28:41;;;;;;;8.60;2.50;;;;;;;20.76;42.82;100846.24;107922;1276;72448;-85
2022/07/20 02:31:11;;;;;;;7.00;2.70;;;;;;;20.74;43.25;100845.08;107602;1279;73148;-86
2022/07/20 02:33:39;;;;;;;8.80;2.90;;;;;;;20.68;43.46;100847.01;107948;1276;60866;-86
2022/07/20 02:36:12;;;;;;;7.30;2.70;;;;;;;20.66;43.57;100848.20;107505;1279;62063;-86
2022/07/20 02:38:39;;;;;;;6.90;2.90;;;;;;;20.61;43.87;100848.25;107688;1279;75956;-86
2022/07/20 02:41:10;;;;;;;5.60;2.60;;;;;;;20.57;44.02;100848.17;107803;1276;74050;-85
2022/07/20 02:43:38;;;;;;;8.50;3.20;;;;;;;20.55;44.36;100850.85;107959;1276;74092;-86
2022/07/20 02:46:12;;;;;;;9.10;3.40;;;;;;;20.51;44.61;100846.09;107824;1276;60269;-86
2022/07/20 02:48:39;;;;;;;6.60;2.90;;;;;;;20.46;44.66;100844.24;108005;1276;60859;-86
2022/07/20 02:51:10;;;;;;;6.80;2.80;;;;;;;20.41;45.05;100843.33;107928;1276;76266;-86
2022/07/20 02:53:37;;;;;;;9.70;2.90;;;;;;;20.35;45.15;100838.96;107777;1276;72524;-86
2022/07/20 02:56:04;;;;;;;8.80;3.20;;;;;;;20.32;45.15;100841.52;107813;1277;72903;-86
2022/07/20 02:58:35;;;;;;;7.10;3.00;;;;;;;20.28;45.23;100841.20;107898;1276;61636;-86
2022/07/20 03:01:02;;;;;;;8.30;3.20;;;;;;;20.23;45.49;100840.64;108031;1276;61617;-86
2022/07/20 03:03:29;;;;;;;7.10;3.10;;;;;;;20.20;45.76;100844.23;107924;1276;76106;-86
2022/07/20 03:05:58;;;;;;;7.30;3.50;;;;;;;20.17;45.87;100843.45;107807;1276;71419;-86
2022/07/20 03:08:25;;;;;;;7.70;3.10;;;;;;;20.14;46.03;100843.39;107973;1276;72024;-86
2022/07/20 03:10:52;;;;;;;7.00;2.90;;;;;;;20.10;46.14;100842.45;107667;1276;61284;-85
2022/07/20 03:13:20;;;;;;;7.00;2.90;;;;;;;20.08;46.19;100843.73;107815;1277;61649;-85
2022/07/20 03:15:47;;;;;;;4.70;2.80;;;;;;;20.05;46.17;100844.79;107950;1276;74911;-85
2022/07/20 03:18:14;;;;;;;7.80;2.80;;;;;;;20.00;46.47;100841.27;107696;1277;72164;-85
2022/07/20 03:20:41;;;;;;;5.30;2.80;;;;;;;19.94;46.42;100843.80;107729;1277;74181;-85
2022/07/20 03:23:08;;;;;;;7.40;2.90;;;;;;;19.89;46.70;100847.20;107605;1277;61740;-87
2022/07/20 03:25:36;;;;;;;6.60;2.80;;;;;;;19.84;46.90;100850.94;107960;1275;60249;-87
2022/07/20 03:28:03;;;;;;;6.40;3.10;;;;;;;19.80;46.97;100851.05;107791;1277;77564;-86
2022/07/20 03:30:30;;;;;;;7.60;2.60;;;;;;;19.77;47.03;100857.06;107747;1276;71356;-86
2022/07/20 03:32:58;;;;;;;6.70;3.30;;;;;;;19.73;47.31;100854.97;107780;1276;74167;-86
2022/07/20 03:35:25;;;;;;;5.80;3.00;;;;;;;19.70;47.23;100856.04;107758;1277;60810;-86
2022/07/20 03:37:52;;;;;;;7.50;2.50;;;;;;;19.69;47.29;100858.19;107772;1276;60423;-86
2022/07/20 03:40:19;;;;;;;5.70;2.60;;;;;;;19.68;47.41;100858.59;107593;1277;76885;-86
2022/07/20 03:42:47;;;;;;;6.60;2.80;;;;;;;19.67;47.36;100856.52;107941;1276;71203;-86
2022/07/20 03:45:14;;;;;;;6.00;2.40;;;;;;;19.66;47.49;100858.40;107867;1276;73732;-86
2022/07/20 03:47:41;;;;;;;7.20;2.90;;;;;;;19.68;47.70;100861.55;107902;1276;61696;-87
2022/07/20 03:50:09;;;;;;;7.40;3.00;;;;;;;19.69;47.74;100861.38;107795;1277;60073;-86
2022/07/20 03:52:36;;;;;;;5.80;2.70;;;;;;;19.71;47.74;100859.92;107569;1276;76286;-86
2022/07/20 03:55:03;;;;;;;6.80;2.80;;;;;;;19.72;47.71;100861.67;107767;1276;71461;-86
2022/07/20 03:57:30;;;;;;;5.60;2.20;;;;;;;19.74;47.68;100864.15;107950;1276;72319;-87
2022/07/20 03:59:58;;;;;;;6.60;2.70;;;;;;;19.75;47.62;100865.68;107811;1276;60434;-87
2022/07/20 04:02:25;;;;;;;6.30;2.80;;;;;;;19.77;47.59;100869.77;107706;1277;61759;-87
2022/07/20 04:04:52;;;;;;;8.00;2.50;;;;;;;19.79;47.75;100868.74;107987;1276;76859;-87
2022/07/20 04:07:19;;;;;;;8.00;2.80;;;;;;;19.81;47.50;100869.01;107978;1276;71468;-87
2022/07/20 04:09:47;;;;;;;4.00;2.50;;;;;;;19.84;47.45;100875.45;107815;1277;74220;-87
2022/07/20 04:12:17;;;;;;;7.90;3.00;;;;;;;19.89;47.38;100878.09;107814;1277;60646;-87
2022/07/20 04:14:45;;;;;;;7.00;2.40;;;;;;;19.94;47.49;100876.07;107812;1279;62946;-88
2022/07/20 04:17:12;;;;;;;9.20;2.80;;;;;;;20.00;47.61;100873.86;107786;1276;77448;-87
2022/07/20 04:19:40;;;;;;;7.50;2.60;;;;;;;20.04;47.38;100872.52;107955;1276;71189;-87
2022/07/20 04:22:07;;;;;;;8.50;2.60;;;;;;;20.09;47.38;100869.45;107929;1276;73485;-87
2022/07/20 04:24:34;;;;;;;9.60;2.90;;;;;;;20.13;47.52;100868.54;107806;1277;61146;-88
2022/07/20 04:27:02;;;;;;;6.80;3.00;;;;;;;20.20;47.52;100869.92;107737;1276;61905;-87
2022/07/20 04:29:29;;;;;;;9.30;3.00;;;;;;;20.27;47.41;100871.48;107618;1277;75915;-87
2022/07/20 04:31:57;;;;;;;8.30;2.90;;;;;;;20.34;47.16;100871.48;107772;1277;71491;-87
2022/07/20 04:34:24;;;;;;;7.10;2.60;;;;;;;20.41;47.19;100871.14;107997;1276;73423;-87
2022/07/20 04:36:52;;;;;;;9.40;3.10;;;;;;;20.49;46.91;100873.53;107886;1276;61350;-87
2022/07/20 04:39:19;;;;;;;7.60;2.60;;;;;;;20.58;46.66;100871.48;107837;1277;60975;-87
2022/07/20 04:41:47;;;;;;;7.90;2.80;;;;;;;20.66;46.42;100874.19;107937;1276;75816;-87
2022/07/20 04:44:14;;;;;;;6.90;2.80;;;;;;;20.75;46.46;100881.92;107983;1276;72637;-88
2022/07/20 04:46:41;;;;;;;7.40;3.00;;;;;;;20.84;46.44;100881.58;107919;1276;73170;-87
2022/07/20 04:49:09;;;;;;;13.40;2.90;;;;;;;20.95;46.48;100881.56;107994;1276;60859;-87
2022/07/20 04:51:36;;;;;;;9.30;2.80;;;;;;;21.04;46.13;100878.10;107792;1276;60589;-88
2022/07/20 04:54:03;;;;;;;8.50;2.60;;;;;;;21.12;46.08;100879.74;107975;1276;76188;-87
2022/07/20 04:56:31;;;;;;;7.50;2.90;;;;;;;21.21;45.78;100879.31;107767;1276;71501;-85
2022/07/20 04:58:58;;;;;;;7.30;3.00;;;;;;;21.30;45.72;100879.33;107851;1276;74643;-85
2022/07/20 05:01:25;;;;;;;7.50;3.00;;;;;;;21.38;45.80;100882.55;107588;1278;60544;-85
2022/07/20 05:03:52;;;;;;;8.00;3.10;;;;;;;21.45;45.86;100884.33;108016;1276;60190;-84
2022/07/20 05:06:19;;;;;;;7.70;2.90;;;;;;;21.53;45.58;100883.13;107752;1276;77246;-85
2022/07/20 05:08:46;;;;;;;9.30;2.90;;;;;;;21.61;45.39;100884.88;107811;1278;72845;-85
2022/07/20 05:11:14;;;;;;;8.50;2.90;;;;;;;21.71;45.16;100881.53;107961;1274;71739;-85
2022/07/20 05:13:41;;;;;;;7.80;3.00;;;;;;;21.81;45.16;100883.90;107676;1277;61558;-85
2022/07/20 05:16:11;;;;;;;7.80;3.10;;;;;;;21.92;44.94;100882.42;107654;1276;60061;-85
2022/07/20 05:18:38;;;;;;;13.10;3.30;;;;;;;22.03;44.78;100879.88;107824;1277;75751;-84
2022/07/20 05:21:11;;;;;;;8.00;2.70;;;;;;;22.11;44.74;100879.34;107821;1277;72406;-83
2022/07/20 05:23:38;;;;;;;10.10;3.60;;;;;;;22.17;44.73;100878.96;107839;1277;74187;-82
2022/07/20 05:26:13;;;;;;;6.60;2.80;;;;;;;22.24;44.52;100881.68;107772;1277;60059;-83
2022/07/20 05:28:43;;;;;;;6.30;2.90;;;;;;;22.32;44.33;100883.48;107838;1276;60484;-82
2022/07/20 05:31:13;;;;;;;9.80;3.00;;;;;;;22.41;44.16;100890.10;107805;1277;75618;-82
2022/07/20 05:33:41;;;;;;;5.80;2.80;;;;;;;22.52;43.96;100886.55;107924;1276;71816;-83
2022/07/20 05:36:14;;;;;;;9.00;3.10;;;;;;;22.65;43.88;100884.02;107919;1276;72760;-82
2022/07/20 05:38:41;;;;;;;7.80;3.00;;;;;;;22.76;44.00;100877.84;107754;1276;62366;-83
2022/07/20 05:41:11;;;;;;;8.90;2.80;;;;;;;22.88;43.90;100877.88;107916;1276;62553;-83
2022/07/20 05:43:38;;;;;;;9.10;2.80;;;;;;;23.02;43.39;100877.52;107756;1278;76976;-83
2022/07/20 05:46:05;;;;;;;7.10;3.10;;;;;;;23.18;43.26;100878.73;107873;1276;71634;-83
2022/07/20 05:48:39;;;;;;;9.00;3.00;;;;;;;23.36;43.16;100878.85;107592;1278;74182;-83
2022/07/20 05:51:09;;;;;;;7.00;3.30;;;;;;;23.53;43.06;100877.49;107847;1277;62016;-83
2022/07/20 05:53:36;;;;;;;7.10;2.70;;;;;;;23.71;42.72;100880.32;107457;1279;62061;-83
2022/07/20 05:56:04;;;;;;;5.80;2.60;;;;;;;23.87;42.38;100879.71;107972;1276;76230;-83
2022/07/20 05:58:38;;;;;;;7.70;2.70;;;;;;;24.05;41.58;100877.83;107993;1276;71102;-83
2022/07/20 06:01:11;;;;;;;7.70;2.50;;;;;;;24.20;41.15;100877.29;107697;1276;72640;-82
2022/07/20 06:03:38;;;;;;;6.80;2.90;;;;;;;24.35;40.71;100873.68;107892;1276;61753;-83
2022/07/20 06:06:12;;;;;;;4.80;2.20;;;;;;;24.51;40.21;100877.01;107935;1276;60522;-83
2022/07/20 06:08:39;;;;;;;6.60;2.40;;;;;;;24.66;40.05;100874.48;107762;1276;74908;-83
2022/07/20 06:11:26;;;;;;;7.50;2.40;;;;;;;24.83;40.04;100874.10;107757;1277;73474;-83
2022/07/20 06:13:52;;;;;;;8.90;2.70;;;;;;;25.00;39.66;100873.83;107919;1276;72955;-82
2022/07/20 06:16:19;;;;;;;8.10;2.60;;;;;;;25.15;39.40;100873.92;107571;1276;60701;-83
2022/07/20 06:18:46;;;;;;;6.40;2.40;;;;;;;25.32;39.23;100875.50;107940;1276;61303;-82
2022/07/20 06:21:14;;;;;;;6.20;2.40;;;;;;;25.49;38.91;100876.08;107896;1277;75757;-83
2022/07/20 06:23:42;;;;;;;7.40;2.60;;;;;;;25.69;38.27;100876.67;107909;1276;71284;-82
2022/07/20 06:26:12;;;;;;;8.80;2.50;;;;;;;25.87;37.45;100880.44;107972;1277;74115;-83
2022/07/20 06:28:39;;;;;;;6.20;2.80;;;;;;;26.05;36.99;100878.86;107750;1278;60765;-82
2022/07/20 06:31:12;;;;;;;5.90;2.40;;;;;;;26.19;36.57;100879.04;107886;1278;61218;-83
2022/07/20 06:33:39;;;;;;;4.40;2.20;;;;;;;26.34;36.57;100881.52;107991;1276;75110;-83
2022/07/20 06:36:12;;;;;;;9.40;2.50;;;;;;;26.51;36.47;100879.73;107949;1277;71102;-83
2022/07/20 06:38:39;;;;;;;4.50;2.30;;;;;;;26.69;36.14;100883.11;107910;1276;72711;-84
2022/07/20 06:41:13;;;;;;;5.80;2.20;;;;;;;26.87;35.88;100885.11;107892;1278;60705;-84
2022/07/20 06:43:39;;;;;;;6.40;2.30;;;;;;;27.06;35.36;100886.05;108008;1276;61132;-83
2022/07/20 06:46:12;;;;;;;6.60;2.60;;;;;;;27.27;34.76;100886.33;107838;1278;75472;-83
2022/07/20 06:48:40;;;;;;;4.60;2.20;;;;;;;27.50;34.11;100888.19;107807;1278;70858;-83
2022/07/20 06:51:13;;;;;;;6.60;2.30;;;;;;;27.71;33.91;100889.11;107704;1277;72717;-83
2022/07/20 06:53:40;;;;;;;5.50;2.30;;;;;;;27.95;33.03;100889.10;107491;1279;61515;-83
2022/07/20 06:56:12;;;;;;;5.30;2.20;;;;;;;28.17;32.70;100891.56;107868;1279;60376;-84
2022/07/20 06:58:39;;;;;;;5.00;2.20;;;;;;;28.38;32.50;100891.55;108088;1276;74991;-83
2022/07/20 07:01:05;;;;;;;5.90;2.40;;;;;;;28.58;32.12;100892.23;107938;1276;70411;-84
2022/07/20 07:03:41;;;;;;;5.70;2.70;;;;;;;28.78;32.07;100894.61;107769;1278;72553;-83
2022/07/20 07:06:14;;;;;;;6.40;2.20;;;;;;;28.99;31.59;100890.30;107961;1277;62714;-84
2022/07/20 07:08:41;;;;;;;6.20;2.10;;;;;;;29.17;31.63;100891.43;108033;1277;60797;-84
2022/07/20 07:11:12;;;;;;;4.60;2.10;;;;;;;29.35;30.82;100887.89;107962;1277;77339;-83
2022/07/20 07:13:39;;;;;;;5.50;2.40;;;;;;;29.51;30.66;100888.23;107958;1277;72396;-84
2022/07/20 07:16:12;;;;;;;6.10;2.30;;;;;;;29.67;30.59;100889.02;107930;1277;73946;-83
2022/07/20 07:18:39;;;;;;;3.90;2.30;;;;;;;29.82;30.12;100885.84;108126;1277;59941;-83
2022/07/20 07:21:13;;;;;;;6.90;2.20;;;;;;;29.97;29.96;100889.14;108041;1277;61625;-82
2022/07/20 07:23:40;;;;;;;5.80;2.40;;;;;;;30.10;29.58;100893.89;107939;1278;75815;-82
2022/07/20 07:26:10;;;;;;;6.00;2.40;;;;;;;30.25;29.53;100896.30;107709;1278;71411;-82
2022/07/20 07:28:37;;;;;;;5.90;2.30;;;;;;;30.39;29.50;100895.08;107918;1277;73449;-83
2022/07/20 07:31:04;;;;;;;6.00;2.30;;;;;;;30.52;29.59;100897.87;108024;1277;60001;-82
2022/07/20 07:33:39;;;;;;;5.20;2.20;;;;;;;30.68;29.49;100896.83;107948;1278;60937;-83
2022/07/20 07:36:15;;;;;;;8.50;2.50;;;;;;;30.82;29.08;100895.16;108119;1277;75420;-82
2022/07/20 07:38:42;;;;;;;5.90;2.30;;;;;;;31.00;28.84;100896.58;108062;1277;72889;-82
2022/07/20 07:41:13;;;;;;;5.20;2.30;;;;;;;31.19;28.88;100897.67;107909;1278;74205;-82
2022/07/20 07:43:40;;;;;;;7.10;2.50;;;;;;;31.38;28.44;100894.35;107862;1277;61666;-82
2022/07/20 07:46:14;;;;;;;6.70;2.60;;;;;;;31.55;28.36;100891.69;108027;1277;60240;-81
2022/07/20 07:48:42;;;;;;;4.90;2.40;;;;;;;31.71;28.09;100890.63;107679;1277;75740;-83
2022/07/20 07:51:12;;;;;;;7.30;2.50;;;;;;;31.87;28.05;100891.99;107811;1278;70027;-81
2022/07/20 07:53:39;;;;;;;8.90;2.60;;;;;;;32.02;27.93;100889.33;107720;1278;73005;-82
2022/07/20 07:56:13;;;;;;;5.60;2.40;;;;;;;32.19;27.98;100886.30;108135;1276;60103;-82
2022/07/20 07:58:40;;;;;;;4.80;2.30;;;;;;;32.38;27.72;100879.88;108052;1277;61460;-82
2022/07/20 08:01:14;;;;;;;5.80;2.30;;;;;;;32.56;27.44;100881.55;107763;1281;75904;-82
2022/07/20 08:03:41;;;;;;;4.40;2.30;;;;;;;32.72;26.92;100874.67;107872;1279;72756;-82
2022/07/20 08:06:11;;;;;;;4.90;2.20;;;;;;;32.89;26.60;100870.02;107894;1278;73067;-82
2022/07/20 08:08:38;;;;;;;5.40;2.10;;;;;;;33.05;26.52;100869.71;108062;1277;59931;-82
2022/07/20 08:11:12;;;;;;;4.50;2.30;;;;;;;33.17;25.86;100872.21;107884;1277;62580;-81
2022/07/20 08:13:39;;;;;;;7.30;2.30;;;;;;;33.30;26.18;100867.48;108002;1277;74196;-81
2022/07/20 08:16:13;;;;;;;6.80;2.00;;;;;;;33.47;25.78;100869.36;107826;1279;71428;-81
2022/07/20 08:18:40;;;;;;;7.00;2.20;;;;;;;33.66;25.41;100864.04;107927;1277;73198;-81
2022/07/20 08:21:14;;;;;;;6.10;2.10;;;;;;;33.81;25.00;100867.98;108017;1277;60696;-81
2022/07/20 08:23:41;;;;;;;5.70;2.00;;;;;;;33.94;24.68;100870.21;108011;1277;60324;-81
2022/07/20 08:26:14;;;;;;;5.20;2.20;;;;;;;34.05;24.96;100869.68;108118;1277;76892;-82
2022/07/20 08:28:42;;;;;;;5.60;2.00;;;;;;;34.20;25.27;100869.30;107888;1277;71212;-82
2022/07/20 08:31:15;;;;;;;5.30;2.10;;;;;;;34.30;24.40;100872.58;107970;1277;73081;-82
2022/07/20 08:33:42;;;;;;;3.90;1.90;;;;;;;34.41;24.40;100867.31;108132;1277;60391;-81
2022/07/20 08:36:12;;;;;;;5.30;2.10;;;;;;;34.53;24.53;100869.20;107919;1277;61769;-82
2022/07/20 08:38:39;;;;;;;7.60;2.20;;;;;;;34.68;24.36;100867.36;108173;1277;74678;-82
2022/07/20 08:41:16;;;;;;;4.90;1.80;;;;;;;34.80;24.16;100865.11;107620;1279;70883;-82
2022/07/20 08:43:43;;;;;;;4.50;1.80;;;;;;;34.94;24.40;100862.16;108115;1277;73636;-82
2022/07/20 08:46:13;;;;;;;6.70;1.90;;;;;;;35.00;23.61;100865.55;107910;1277;61792;-81
2022/07/20 08:48:42;;;;;;;5.80;1.90;;;;;;;35.10;23.69;100862.05;107949;1277;60436;-82
2022/07/20 08:51:15;;;;;;;6.30;2.10;;;;;;;35.13;23.19;100866.58;107994;1277;74794;-81
2022/07/20 08:53:42;;;;;;;4.10;1.80;;;;;;;35.25;23.11;100864.29;108172;1276;72956;-81
2022/07/20 08:56:15;;;;;;;4.80;1.90;;;;;;;35.42;23.15;100862.19;108048;1277;73940;-81
2022/07/20 08:58:42;;;;;;;5.00;1.80;;;;;;;35.56;22.90;100865.84;107727;1280;61209;-81
2022/07/20 09:01:17;;;;;;;5.80;2.20;;;;;;;35.61;22.39;100869.42;108130;1277;61153;-82
2022/07/20 09:04:02;;;;;;;3.70;1.90;;;;;;;35.68;22.82;100861.98;108196;1277;75588;-81
2022/07/20 09:06:45;;;;;;;2.80;1.70;;;;;;;35.80;22.41;100855.25;108172;1276;71366;-81
2022/07/20 09:09:13;;;;;;;4.50;1.90;;;;;;;35.85;21.95;100854.73;107988;1278;72143;-82
2022/07/20 09:11:41;;;;;;;4.40;1.80;;;;;;;35.92;22.10;100853.88;108079;1277;61668;-81
2022/07/20 09:14:09;;;;;;;4.80;1.90;;;;;;;36.01;22.30;100852.98;108003;1277;60147;-81
2022/07/20 09:16:46;;;;;;;4.90;2.10;;;;;;;36.13;22.01;100854.64;108204;1276;77085;-81
2022/07/20 09:19:15;;;;;;;6.30;2.10;;;;;;;36.23;21.81;100855.59;107873;1277;72264;-82
2022/07/20 09:21:47;;;;;;;5.20;1.90;;;;;;;36.26;21.39;100853.87;108214;1277;72933;-82
2022/07/20 09:24:17;;;;;;;3.60;1.50;;;;;;;36.31;21.25;100848.82;107814;1278;60597;-82
2022/07/20 09:26:45;;;;;;;5.40;2.00;;;;;;;36.41;21.50;100850.88;108213;1276;62430;-81
2022/07/20 09:29:12;;;;;;;5.60;2.30;;;;;;;36.58;21.67;100845.32;108190;1276;75840;-80
2022/07/20 09:31:39;;;;;;;6.80;1.90;;;;;;;36.70;21.30;100847.85;107984;1277;71774;-81
2022/07/20 09:34:08;;;;;;;5.50;2.10;;;;;;;36.78;21.10;100847.85;107719;1277;73816;-81
2022/07/20 09:36:40;;;;;;;5.20;2.30;;;;;;;36.82;20.48;100855.56;107592;1279;60768;-82
2022/07/20 09:39:10;;;;;;;3.40;1.80;;;;;;;36.82;20.46;100851.17;108145;1276;59891;-82
2022/07/20 09:41:39;;;;;;;4.10;1.90;;;;;;;36.84;20.35;100849.69;108191;1276;75480;-80
2022/07/20 09:44:10;;;;;;;4.70;1.90;;;;;;;36.93;20.52;100846.08;107927;1277;71227;-81
2022/07/20 09:46:39;;;;;;;5.60;2.20;;;;;;;37.00;20.16;100845.72;107856;1277;73431;-80
2022/07/20 09:49:09;;;;;;;5.90;2.30;;;;;;;37.01;19.96;100849.14;107896;1276;61977;-81
2022/07/20 09:51:47;;;;;;;4.40;2.00;;;;;;;37.07;19.36;100855.15;108171;1276;60081;-81
2022/07/20 09:54:19;;;;;;;4.60;1.60;;;;;;;37.09;19.12;100848.14;107985;1276;76785;-82
2022/07/20 09:56:48;;;;;;;6.20;2.10;;;;;;;37.12;19.17;100852.66;108121;1276;71274;-82
2022/07/20 09:59:16;;;;;;;4.60;1.80;;;;;;;37.19;19.36;100849.91;108014;1276;73316;-80
2022/07/20 10:01:46;;;;;;;4.50;2.00;;;;;;;37.21;19.28;100848.63;107951;1277;62050;-81
2022/07/20 10:04:15;;;;;;;5.20;2.00;;;;;;;37.21;19.39;100849.80;108273;1276;60780;-80
2022/07/20 10:06:45;;;;;;;4.50;1.70;;;;;;;37.22;19.15;100852.53;108084;1277;75913;-82
2022/07/20 10:09:14;;;;;;;5.00;2.00;;;;;;;37.26;18.95;100851.86;107926;1276;73482;-82
2022/07/20 10:11:42;;;;;;;5.80;1.90;;;;;;;37.36;19.06;100849.90;108003;1277;72990;-82
2022/07/20 10:14:10;;;;;;;6.80;2.00;;;;;;;37.39;18.69;100854.10;107961;1277;60232;-83
2022/07/20 10:16:49;;;;;;;4.50;1.80;;;;;;;37.38;19.19;100844.03;107952;1277;60955;-81
2022/07/20 10:19:16;;;;;;;4.60;1.70;;;;;;;37.43;19.17;100841.55;108105;1276;75209;-83
2022/07/20 10:21:52;;;;;;;7.40;2.40;;;;;;;37.46;19.00;100837.86;107699;1279;71474;-80
2022/07/20 10:24:25;;;;;;;3.70;1.80;;;;;;;37.51;18.99;100837.83;107991;1276;73374;-81
2022/07/20 10:27:07;;;;;;;4.00;1.70;;;;;;;37.58;18.88;100833.67;107957;1276;60161;-82
2022/07/20 10:29:43;;;;;;;5.50;1.90;;;;;;;37.69;18.85;100837.52;108142;1274;60664;-83
2022/07/20 10:32:11;;;;;;;3.40;1.60;;;;;;;37.77;18.93;100833.05;107933;1276;76969;-81
2022/07/20 10:34:47;;;;;;;4.30;1.80;;;;;;;37.84;18.28;100829.67;108204;1276;72632;-81
2022/07/20 10:37:36;;;;;;;4.10;2.10;;;;;;;37.89;18.27;100831.93;108118;1276;73498;-82
2022/07/20 10:40:10;;;;;;;5.20;2.10;;;;;;;37.92;17.88;100831.98;108187;1275;60042;-83
2022/07/20 10:42:43;;;;;;;4.60;2.20;;;;;;;37.90;18.24;100832.20;107908;1276;60135;-81
2022/07/20 10:45:19;;;;;;;4.50;1.80;;;;;;;37.94;18.39;100829.52;108194;1276;77517;-83
2022/07/20 10:47:53;;;;;;;6.60;2.10;;;;;;;37.95;18.10;100829.64;108092;1276;71531;-81
2022/07/20 10:50:21;;;;;;;4.60;2.00;;;;;;;37.95;18.28;100829.46;108114;1276;74799;-82
2022/07/20 10:52:50;;;;;;;5.10;2.00;;;;;;;38.02;17.82;100834.69;108061;1276;61864;-82
2022/07/20 10:55:58;;;;;;;5.90;2.20;;;;;;;38.02;17.82;100832.08;108189;1277;59939;-82
2022/07/20 10:58:33;;;;;;;7.70;2.10;;;;;;;38.04;17.60;100823.13;107680;1277;75888;-83
2022/07/20 11:01:07;;;;;;;4.60;1.80;;;;;;;38.07;17.42;100825.50;107904;1276;71071;-81
2022/07/20 11:03:43;;;;;;;8.80;2.30;;;;;;;38.07;17.44;100823.54;107968;1277;74798;-81
2022/07/20 11:06:22;;;;;;;4.60;1.90;;;;;;;38.04;17.28;100820.94;108092;1276;60059;-81
2022/07/20 11:08:55;;;;;;;4.30;2.00;;;;;;;38.04;17.65;100824.09;107696;1279;62144;-83
2022/07/20 11:11:26;;;;;;;4.80;1.70;;;;;;;38.13;17.46;100820.11;107895;1276;75452;-83
2022/07/20 11:13:53;;;;;;;5.10;2.10;;;;;;;38.15;17.08;100812.16;107925;1277;72869;-81
2022/07/20 11:16:25;;;;;;;5.50;1.90;;;;;;;38.15;16.94;100809.16;108086;1276;74004;-82
2022/07/20 11:18:53;;;;;;;5.00;2.00;;;;;;;38.15;17.25;100812.88;108124;1276;60436;-82
2022/07/20 11:21:38;;;;;;;6.90;2.10;;;;;;;38.18;17.47;100810.08;107931;1276;60562;-81
2022/07/20 11:24:29;;;;;;;4.70;2.00;;;;;;;38.27;17.51;100811.66;108115;1276;74187;-82
2022/07/20 11:26:56;;;;;;;5.00;1.90;;;;;;;38.30;17.05;100808.86;108110;1276;72982;-81
2022/07/20 11:29:25;;;;;;;3.60;1.70;;;;;;;38.36;17.13;100800.27;107807;1277;74210;-80
2022/07/20 11:31:52;;;;;;;5.50;1.90;;;;;;;38.50;17.45;100799.27;107807;1279;60447;-81